sensor_id;sensor_type;location;lat;lon;timestamp;temperature;humidity
50556;DHT22;36508;52.512;13.450;2024-03-02T00:01:24;10.00;99.90
50556;DHT22;36508;52.512;13.450;2024-03-02T00:03:50;10.00;99.90
50556;DHT22;36508;52.512;13.450;2024-03-02T00:06:20;9.90;99.90
50556;DHT22;36508;52.512;13.450;2024-03-02T00:08:46;10.00;99.90
50556;DHT22;36508;52.512;13.450;2024-03-02T00:11:12;9.90;99.90
50556;DHT22;36508;52.512;13.450;2024-03-02T00:13:39;9.90;99.90
50556;DHT22;36508;52.512;13.450;2024-03-02T00:16:05;9.90;99.90
50556;DHT22;36508;52.512;13.450;2024-03-02T00:18:35;9.90;99.90
50556;DHT22;36508;52.512;13.450;2024-03-02T00:21:01;10.00;99.90
50556;DHT22;36508;52.512;13.450;2024-03-02T00:23:30;10.00;99.90
50556;DHT22;36508;52.512;13.450;2024-03-02T00:25:57;10.00;99.90
50556;DHT22;36508;52.512;13.450;2024-03-02T00:28:23;10.00;99.90
50556;DHT22;36508;52.512;13.450;2024-03-02T00:31:02;10.00;99.90
50556;DHT22;36508;52.512;13.450;2024-03-02T00:33:32;10.00;99.90
50556;DHT22;36508;52.512;13.450;2024-03-02T00:35:59;10.00;99.90
50556;DHT22;36508;52.512;13.450;2024-03-02T00:38:25;10.10;99.90
50556;DHT22;36508;52.512;13.450;2024-03-02T00:40:51;10.10;99.90
50556;DHT22;36508;52.512;13.450;2024-03-02T00:46:21;10.10;99.90
50556;DHT22;36508;52.512;13.450;2024-03-02T00:51:23;10.10;99.90
50556;DHT22;36508;52.512;13.450;2024-03-02T00:53:49;10.10;99.90
50556;DHT22;36508;52.512;13.450;2024-03-02T00:56:19;10.10;99.90
50556;DHT22;36508;52.512;13.450;2024-03-02T00:58:44;10.20;99.90
50556;DHT22;36508;52.512;13.450;2024-03-02T01:01:10;10.30;99.90
50556;DHT22;36508;52.512;13.450;2024-03-02T01:03:36;10.20;99.90
50556;DHT22;36508;52.512;13.450;2024-03-02T01:06:03;10.20;99.90
50556;DHT22;36508;52.512;13.450;2024-03-02T01:08:28;10.20;99.90
50556;DHT22;36508;52.512;13.450;2024-03-02T01:10:54;10.20;99.90
50556;DHT22;36508;52.512;13.450;2024-03-02T01:13:21;10.30;99.90
50556;DHT22;36508;52.512;13.450;2024-03-02T01:15:46;10.20;99.90
50556;DHT22;36508;52.512;13.450;2024-03-02T01:18:12;10.20;99.90
50556;DHT22;36508;52.512;13.450;2024-03-02T01:20:37;10.20;99.90
50556;DHT22;36508;52.512;13.450;2024-03-02T01:23:03;10.30;99.90
50556;DHT22;36508;52.512;13.450;2024-03-02T01:25:29;10.30;99.90
50556;DHT22;36508;52.512;13.450;2024-03-02T01:27:54;10.30;99.90
50556;DHT22;36508;52.512;13.450;2024-03-02T01:30:20;10.30;99.90
50556;DHT22;36508;52.512;13.450;2024-03-02T01:32:46;10.30;99.90
50556;DHT22;36508;52.512;13.450;2024-03-02T01:35:12;10.30;99.90
50556;DHT22;36508;52.512;13.450;2024-03-02T01:37:37;10.40;99.90
50556;DHT22;36508;52.512;13.450;2024-03-02T01:40:03;10.40;99.90
50556;DHT22;36508;52.512;13.450;2024-03-02T01:42:37;10.40;99.90
50556;DHT22;36508;52.512;13.450;2024-03-02T01:45:05;10.40;99.90
50556;DHT22;36508;52.512;13.450;2024-03-02T01:47:31;10.40;99.90
50556;DHT22;36508;52.512;13.450;2024-03-02T01:49:57;10.30;99.90
50556;DHT22;36508;52.512;13.450;2024-03-02T01:52:23;10.40;99.90
50556;DHT22;36508;52.512;13.450;2024-03-02T01:54:49;10.40;99.90
50556;DHT22;36508;52.512;13.450;2024-03-02T01:57:15;10.30;99.90
50556;DHT22;36508;52.512;13.450;2024-03-02T01:59:41;10.30;99.90
50556;DHT22;36508;52.512;13.450;2024-03-02T02:02:07;10.30;99.90
50556;DHT22;36508;52.512;13.450;2024-03-02T02:04:33;10.30;99.90
50556;DHT22;36508;52.512;13.450;2024-03-02T02:06:59;10.20;99.90
50556;DHT22;36508;52.512;13.450;2024-03-02T02:09:25;10.30;99.90
50556;DHT22;36508;52.512;13.450;2024-03-02T02:11:51;10.30;99.90
50556;DHT22;36508;52.512;13.450;2024-03-02T02:14:17;10.40;99.90
50556;DHT22;36508;52.512;13.450;2024-03-02T02:16:42;10.40;99.90
50556;DHT22;36508;52.512;13.450;2024-03-02T02:19:08;10.40;99.90
50556;DHT22;36508;52.512;13.450;2024-03-02T02:21:34;10.40;99.90
50556;DHT22;36508;52.512;13.450;2024-03-02T02:24:00;10.40;99.90
50556;DHT22;36508;52.512;13.450;2024-03-02T02:26:28;10.40;99.90
50556;DHT22;36508;52.512;13.450;2024-03-02T02:28:54;10.40;99.90
50556;DHT22;36508;52.512;13.450;2024-03-02T02:31:20;10.30;99.90
50556;DHT22;36508;52.512;13.450;2024-03-02T02:33:45;10.30;99.90
50556;DHT22;36508;52.512;13.450;2024-03-02T02:36:11;10.30;99.90
50556;DHT22;36508;52.512;13.450;2024-03-02T02:38:40;10.30;99.90
50556;DHT22;36508;52.512;13.450;2024-03-02T02:41:07;10.30;99.90
50556;DHT22;36508;52.512;13.450;2024-03-02T02:43:32;10.30;99.90
50556;DHT22;36508;52.512;13.450;2024-03-02T02:45:58;10.30;99.90
50556;DHT22;36508;52.512;13.450;2024-03-02T02:48:23;10.30;99.90
50556;DHT22;36508;52.512;13.450;2024-03-02T02:50:49;10.40;99.90
50556;DHT22;36508;52.512;13.450;2024-03-02T02:53:15;10.30;99.90
50556;DHT22;36508;52.512;13.450;2024-03-02T02:55:40;10.20;99.90
50556;DHT22;36508;52.512;13.450;2024-03-02T02:58:06;10.10;99.90
50556;DHT22;36508;52.512;13.450;2024-03-02T03:00:32;10.10;99.90
50556;DHT22;36508;52.512;13.450;2024-03-02T03:02:58;10.10;99.90
50556;DHT22;36508;52.512;13.450;2024-03-02T03:05:23;10.10;99.90
50556;DHT22;36508;52.512;13.450;2024-03-02T03:07:49;10.10;99.90
50556;DHT22;36508;52.512;13.450;2024-03-02T03:10:15;10.20;99.90
50556;DHT22;36508;52.512;13.450;2024-03-02T03:12:41;10.20;99.90
50556;DHT22;36508;52.512;13.450;2024-03-02T03:15:09;10.20;99.90
50556;DHT22;36508;52.512;13.450;2024-03-02T03:17:36;10.20;99.90
50556;DHT22;36508;52.512;13.450;2024-03-02T03:20:02;10.30;99.90
50556;DHT22;36508;52.512;13.450;2024-03-02T03:22:32;10.10;99.90
50556;DHT22;36508;52.512;13.450;2024-03-02T03:24:58;10.10;99.90
50556;DHT22;36508;52.512;13.450;2024-03-02T03:27:24;10.20;99.90
50556;DHT22;36508;52.512;13.450;2024-03-02T03:29:49;10.20;99.90
50556;DHT22;36508;52.512;13.450;2024-03-02T03:34:50;10.30;99.90
50556;DHT22;36508;52.512;13.450;2024-03-02T03:37:16;10.30;99.90
50556;DHT22;36508;52.512;13.450;2024-03-02T03:39:41;10.30;99.90
50556;DHT22;36508;52.512;13.450;2024-03-02T03:42:07;10.20;99.90
50556;DHT22;36508;52.512;13.450;2024-03-02T03:44:33;10.30;99.90
50556;DHT22;36508;52.512;13.450;2024-03-02T03:46:58;10.20;99.90
50556;DHT22;36508;52.512;13.450;2024-03-02T03:49:24;10.40;99.90
50556;DHT22;36508;52.512;13.450;2024-03-02T03:51:52;10.40;99.90
50556;DHT22;36508;52.512;13.450;2024-03-02T03:54:18;10.40;99.90
50556;DHT22;36508;52.512;13.450;2024-03-02T03:56:44;10.40;99.90
50556;DHT22;36508;52.512;13.450;2024-03-02T03:59:10;10.50;99.90
50556;DHT22;36508;52.512;13.450;2024-03-02T04:01:39;10.50;99.90
50556;DHT22;36508;52.512;13.450;2024-03-02T04:04:05;10.40;99.90
50556;DHT22;36508;52.512;13.450;2024-03-02T04:06:32;10.40;99.90
50556;DHT22;36508;52.512;13.450;2024-03-02T04:08:59;10.40;99.90
50556;DHT22;36508;52.512;13.450;2024-03-02T04:11:28;10.40;99.90
50556;DHT22;36508;52.512;13.450;2024-03-02T04:13:53;10.40;99.90
50556;DHT22;36508;52.512;13.450;2024-03-02T04:16:19;10.30;99.90
50556;DHT22;36508;52.512;13.450;2024-03-02T08:54:23;10.60;99.90
50556;DHT22;36508;52.512;13.450;2024-03-02T08:56:50;10.60;99.90
50556;DHT22;36508;52.512;13.450;2024-03-02T08:59:16;10.70;99.90
50556;DHT22;36508;52.512;13.450;2024-03-02T09:01:41;10.90;99.90
50556;DHT22;36508;52.512;13.450;2024-03-02T09:04:07;10.70;99.90
50556;DHT22;36508;52.512;13.450;2024-03-02T09:06:38;10.90;99.90
50556;DHT22;36508;52.512;13.450;2024-03-02T09:09:04;10.90;99.90
50556;DHT22;36508;52.512;13.450;2024-03-02T09:11:30;10.90;99.90
50556;DHT22;36508;52.512;13.450;2024-03-02T09:13:55;11.00;99.90
50556;DHT22;36508;52.512;13.450;2024-03-02T09:16:22;11.10;99.90
50556;DHT22;36508;52.512;13.450;2024-03-02T09:18:47;11.10;99.90
50556;DHT22;36508;52.512;13.450;2024-03-02T09:21:13;11.20;99.90
50556;DHT22;36508;52.512;13.450;2024-03-02T09:23:38;11.30;99.90
50556;DHT22;36508;52.512;13.450;2024-03-02T09:26:05;11.20;99.90
50556;DHT22;36508;52.512;13.450;2024-03-02T09:28:31;11.20;99.90
50556;DHT22;36508;52.512;13.450;2024-03-02T09:30:56;11.20;99.90
50556;DHT22;36508;52.512;13.450;2024-03-02T09:33:22;11.30;99.90
50556;DHT22;36508;52.512;13.450;2024-03-02T09:35:47;11.40;99.90
50556;DHT22;36508;52.512;13.450;2024-03-02T09:38:14;11.50;99.90
50556;DHT22;36508;52.512;13.450;2024-03-02T09:40:41;11.30;99.90
50556;DHT22;36508;52.512;13.450;2024-03-02T09:43:07;11.30;99.90
50556;DHT22;36508;52.512;13.450;2024-03-02T09:45:33;11.30;99.90
50556;DHT22;36508;52.512;13.450;2024-03-02T09:47:59;11.40;99.90
50556;DHT22;36508;52.512;13.450;2024-03-02T09:50:28;11.60;99.90
50556;DHT22;36508;52.512;13.450;2024-03-02T09:52:54;11.90;99.90
50556;DHT22;36508;52.512;13.450;2024-03-02T09:55:21;12.20;99.90
50556;DHT22;36508;52.512;13.450;2024-03-02T09:57:51;12.30;99.90
50556;DHT22;36508;52.512;13.450;2024-03-02T10:00:17;12.40;99.90
50556;DHT22;36508;52.512;13.450;2024-03-02T10:02:43;12.50;99.90
50556;DHT22;36508;52.512;13.450;2024-03-02T10:05:10;12.70;99.90
50556;DHT22;36508;52.512;13.450;2024-03-02T10:07:40;12.90;99.90
50556;DHT22;36508;52.512;13.450;2024-03-02T10:10:15;13.00;99.90
50556;DHT22;36508;52.512;13.450;2024-03-02T10:12:41;13.10;99.90
50556;DHT22;36508;52.512;13.450;2024-03-02T10:15:07;13.30;99.90
50556;DHT22;36508;52.512;13.450;2024-03-02T10:17:34;13.30;99.90
50556;DHT22;36508;52.512;13.450;2024-03-02T10:20:23;13.60;99.90
50556;DHT22;36508;52.512;13.450;2024-03-02T10:22:49;13.80;99.90
50556;DHT22;36508;52.512;13.450;2024-03-02T10:25:29;14.20;99.90
50556;DHT22;36508;52.512;13.450;2024-03-02T10:30:23;14.20;99.90
50556;DHT22;36508;52.512;13.450;2024-03-02T10:32:49;14.10;99.90
50556;DHT22;36508;52.512;13.450;2024-03-02T10:35:16;14.20;99.90
50556;DHT22;36508;52.512;13.450;2024-03-02T10:37:42;14.20;99.90
50556;DHT22;36508;52.512;13.450;2024-03-02T10:40:10;14.10;99.90
50556;DHT22;36508;52.512;13.450;2024-03-02T10:42:38;14.00;99.90
50556;DHT22;36508;52.512;13.450;2024-03-02T10:45:06;13.90;99.90
50556;DHT22;36508;52.512;13.450;2024-03-02T10:47:33;13.80;99.90
50556;DHT22;36508;52.512;13.450;2024-03-02T10:50:01;13.80;99.90
50556;DHT22;36508;52.512;13.450;2024-03-02T10:52:29;14.00;99.90
50556;DHT22;36508;52.512;13.450;2024-03-02T10:54:54;14.00;99.90
50556;DHT22;36508;52.512;13.450;2024-03-02T10:57:21;14.00;99.90
50556;DHT22;36508;52.512;13.450;2024-03-02T10:59:56;14.00;99.90
50556;DHT22;36508;52.512;13.450;2024-03-02T11:02:24;14.30;99.90
50556;DHT22;36508;52.512;13.450;2024-03-02T11:04:54;14.40;99.90
50556;DHT22;36508;52.512;13.450;2024-03-02T11:07:21;14.20;99.90
50556;DHT22;36508;52.512;13.450;2024-03-02T11:09:54;14.20;99.90
50556;DHT22;36508;52.512;13.450;2024-03-02T11:12:46;14.20;99.90
50556;DHT22;36508;52.512;13.450;2024-03-02T11:15:17;14.30;99.90
50556;DHT22;36508;52.512;13.450;2024-03-02T11:17:46;14.60;99.90
50556;DHT22;36508;52.512;13.450;2024-03-02T11:20:12;14.70;99.90
50556;DHT22;36508;52.512;13.450;2024-03-02T11:22:38;14.60;99.90
50556;DHT22;36508;52.512;13.450;2024-03-02T11:25:04;14.10;99.90
50556;DHT22;36508;52.512;13.450;2024-03-02T11:33:08;14.50;99.90
50556;DHT22;36508;52.512;13.450;2024-03-02T11:35:38;14.30;99.90
50556;DHT22;36508;52.512;13.450;2024-03-02T11:38:04;14.20;99.90
50556;DHT22;36508;52.512;13.450;2024-03-02T11:40:30;14.30;99.90
50556;DHT22;36508;52.512;13.450;2024-03-02T11:42:57;14.40;99.90
50556;DHT22;36508;52.512;13.450;2024-03-02T11:45:25;14.70;99.90
50556;DHT22;36508;52.512;13.450;2024-03-02T11:47:54;15.30;99.90
50556;DHT22;36508;52.512;13.450;2024-03-02T11:50:49;15.60;99.90
50556;DHT22;36508;52.512;13.450;2024-03-02T11:53:15;16.10;99.90
50556;DHT22;36508;52.512;13.450;2024-03-02T11:55:41;16.50;99.90
50556;DHT22;36508;52.512;13.450;2024-03-02T11:58:09;16.50;99.90
50556;DHT22;36508;52.512;13.450;2024-03-02T12:00:35;16.30;99.90
50556;DHT22;36508;52.512;13.450;2024-03-02T12:03:08;15.90;99.90
50556;DHT22;36508;52.512;13.450;2024-03-02T12:05:34;15.90;99.90
50556;DHT22;36508;52.512;13.450;2024-03-02T12:08:04;16.30;99.90
50556;DHT22;36508;52.512;13.450;2024-03-02T12:10:31;16.60;99.90
50556;DHT22;36508;52.512;13.450;2024-03-02T12:13:04;17.10;99.90
50556;DHT22;36508;52.512;13.450;2024-03-02T12:15:33;17.10;99.90
50556;DHT22;36508;52.512;13.450;2024-03-02T12:18:01;17.40;99.90
50556;DHT22;36508;52.512;13.450;2024-03-02T12:20:28;18.90;99.90
50556;DHT22;36508;52.512;13.450;2024-03-02T12:22:55;20.50;99.90
50556;DHT22;36508;52.512;13.450;2024-03-02T12:25:22;21.00;99.90
50556;DHT22;36508;52.512;13.450;2024-03-02T12:27:56;21.90;99.90
50556;DHT22;36508;52.512;13.450;2024-03-02T12:30:22;22.60;99.90
50556;DHT22;36508;52.512;13.450;2024-03-02T12:32:49;22.80;99.90
50556;DHT22;36508;52.512;13.450;2024-03-02T12:35:15;22.90;99.90
50556;DHT22;36508;52.512;13.450;2024-03-02T12:37:48;23.00;99.90
50556;DHT22;36508;52.512;13.450;2024-03-02T12:40:16;22.40;99.90
50556;DHT22;36508;52.512;13.450;2024-03-02T12:42:46;22.00;99.90
50556;DHT22;36508;52.512;13.450;2024-03-02T12:45:13;22.40;99.90
50556;DHT22;36508;52.512;13.450;2024-03-02T12:47:42;22.90;99.90
50556;DHT22;36508;52.512;13.450;2024-03-02T12:50:09;22.70;99.90
50556;DHT22;36508;52.512;13.450;2024-03-02T12:52:35;22.20;99.90
50556;DHT22;36508;52.512;13.450;2024-03-02T12:55:05;21.50;99.90
50556;DHT22;36508;52.512;13.450;2024-03-02T12:57:32;20.90;99.90
50556;DHT22;36508;52.512;13.450;2024-03-02T12:59:59;20.30;99.90
50556;DHT22;36508;52.512;13.450;2024-03-02T13:02:28;20.50;99.90
50556;DHT22;36508;52.512;13.450;2024-03-02T13:04:55;20.40;99.90
50556;DHT22;36508;52.512;13.450;2024-03-02T13:07:22;20.20;99.90
50556;DHT22;36508;52.512;13.450;2024-03-02T13:09:50;19.90;99.90
50556;DHT22;36508;52.512;13.450;2024-03-02T13:12:16;19.50;99.90
50556;DHT22;36508;52.512;13.450;2024-03-02T13:14:42;18.90;99.90
50556;DHT22;36508;52.512;13.450;2024-03-02T13:17:10;18.30;99.90
50556;DHT22;36508;52.512;13.450;2024-03-02T13:19:50;17.50;99.90
50556;DHT22;36508;52.512;13.450;2024-03-02T13:22:15;17.40;99.90
50556;DHT22;36508;52.512;13.450;2024-03-02T13:24:41;18.10;99.90
50556;DHT22;36508;52.512;13.450;2024-03-02T13:27:08;18.90;99.90
50556;DHT22;36508;52.512;13.450;2024-03-02T13:29:33;20.10;99.90
50556;DHT22;36508;52.512;13.450;2024-03-02T13:31:59;20.70;99.90
50556;DHT22;36508;52.512;13.450;2024-03-02T13:34:24;21.20;99.90
50556;DHT22;36508;52.512;13.450;2024-03-02T13:36:50;21.50;99.90
50556;DHT22;36508;52.512;13.450;2024-03-02T13:39:16;21.60;99.90
50556;DHT22;36508;52.512;13.450;2024-03-02T13:41:41;21.30;99.90
50556;DHT22;36508;52.512;13.450;2024-03-02T13:44:07;21.20;99.90
50556;DHT22;36508;52.512;13.450;2024-03-02T13:46:33;21.40;99.90
50556;DHT22;36508;52.512;13.450;2024-03-02T13:48:58;21.60;99.90
50556;DHT22;36508;52.512;13.450;2024-03-02T13:51:24;21.70;99.90
50556;DHT22;36508;52.512;13.450;2024-03-02T13:53:50;21.90;99.90
50556;DHT22;36508;52.512;13.450;2024-03-02T13:56:16;21.70;99.90
50556;DHT22;36508;52.512;13.450;2024-03-02T13:58:42;21.30;99.90
50556;DHT22;36508;52.512;13.450;2024-03-02T14:01:09;21.20;99.90
50556;DHT22;36508;52.512;13.450;2024-03-02T14:03:35;21.60;99.90
50556;DHT22;36508;52.512;13.450;2024-03-02T14:06:00;22.40;99.90
50556;DHT22;36508;52.512;13.450;2024-03-02T14:08:26;22.80;99.90
50556;DHT22;36508;52.512;13.450;2024-03-02T14:10:52;23.00;99.90
50556;DHT22;36508;52.512;13.450;2024-03-02T14:13:17;22.50;99.90
50556;DHT22;36508;52.512;13.450;2024-03-02T14:15:43;22.50;99.90
50556;DHT22;36508;52.512;13.450;2024-03-02T14:18:09;22.20;99.90
50556;DHT22;36508;52.512;13.450;2024-03-02T14:20:35;22.10;99.90
50556;DHT22;36508;52.512;13.450;2024-03-02T14:23:01;22.00;99.90
50556;DHT22;36508;52.512;13.450;2024-03-02T14:25:28;22.30;99.90
50556;DHT22;36508;52.512;13.450;2024-03-02T14:27:57;22.20;99.90
50556;DHT22;36508;52.512;13.450;2024-03-02T14:30:23;21.50;99.90
50556;DHT22;36508;52.512;13.450;2024-03-02T14:32:48;20.90;99.90
50556;DHT22;36508;52.512;13.450;2024-03-02T14:35:14;20.90;99.90
50556;DHT22;36508;52.512;13.450;2024-03-02T14:37:40;20.30;99.90
50556;DHT22;36508;52.512;13.450;2024-03-02T14:40:06;19.90;99.90
50556;DHT22;36508;52.512;13.450;2024-03-02T14:42:35;20.10;99.90
50556;DHT22;36508;52.512;13.450;2024-03-02T14:45:00;20.30;99.90
50556;DHT22;36508;52.512;13.450;2024-03-02T14:47:28;20.70;99.90
50556;DHT22;36508;52.512;13.450;2024-03-02T14:49:53;20.30;99.90
50556;DHT22;36508;52.512;13.450;2024-03-02T14:52:19;19.90;99.90
50556;DHT22;36508;52.512;13.450;2024-03-02T14:54:44;19.50;99.90
50556;DHT22;36508;52.512;13.450;2024-03-02T14:57:10;19.30;99.90
50556;DHT22;36508;52.512;13.450;2024-03-02T15:02:06;18.30;99.90
50556;DHT22;36508;52.512;13.450;2024-03-02T15:04:32;18.00;99.90
50556;DHT22;36508;52.512;13.450;2024-03-02T15:06:58;17.50;99.90
50556;DHT22;36508;52.512;13.450;2024-03-02T15:09:24;17.20;99.90
50556;DHT22;36508;52.512;13.450;2024-03-02T15:11:49;17.20;99.90
50556;DHT22;36508;52.512;13.450;2024-03-02T15:14:15;17.10;99.90
50556;DHT22;36508;52.512;13.450;2024-03-02T15:16:41;16.70;99.90
50556;DHT22;36508;52.512;13.450;2024-03-02T15:19:07;16.40;99.90
50556;DHT22;36508;52.512;13.450;2024-03-02T15:21:56;16.00;99.90
50556;DHT22;36508;52.512;13.450;2024-03-02T15:25:00;16.10;99.90
50556;DHT22;36508;52.512;13.450;2024-03-02T15:27:34;16.50;99.90
50556;DHT22;36508;52.512;13.450;2024-03-02T15:30:00;16.80;99.90
50556;DHT22;36508;52.512;13.450;2024-03-02T15:32:26;16.80;99.90
50556;DHT22;36508;52.512;13.450;2024-03-02T15:34:52;16.90;99.90
50556;DHT22;36508;52.512;13.450;2024-03-02T15:37:21;16.60;99.90
50556;DHT22;36508;52.512;13.450;2024-03-02T15:39:47;16.40;99.90
50556;DHT22;36508;52.512;13.450;2024-03-02T15:42:14;16.20;99.90
50556;DHT22;36508;52.512;13.450;2024-03-02T15:44:44;16.00;99.90
50556;DHT22;36508;52.512;13.450;2024-03-02T15:47:32;15.90;99.90
50556;DHT22;36508;52.512;13.450;2024-03-02T15:50:02;15.80;99.90
50556;DHT22;36508;52.512;13.450;2024-03-02T15:52:30;15.70;99.90
50556;DHT22;36508;52.512;13.450;2024-03-02T15:54:57;15.40;99.90
50556;DHT22;36508;52.512;13.450;2024-03-02T15:57:22;15.40;99.90
50556;DHT22;36508;52.512;13.450;2024-03-02T15:59:48;15.30;99.90
50556;DHT22;36508;52.512;13.450;2024-03-02T16:02:15;15.10;99.90
50556;DHT22;36508;52.512;13.450;2024-03-02T16:04:47;15.00;99.90
50556;DHT22;36508;52.512;13.450;2024-03-02T16:07:13;15.00;99.90
50556;DHT22;36508;52.512;13.450;2024-03-02T16:09:38;14.80;99.90
50556;DHT22;36508;52.512;13.450;2024-03-02T16:12:04;14.80;99.90
50556;DHT22;36508;52.512;13.450;2024-03-02T16:14:30;14.70;99.90
50556;DHT22;36508;52.512;13.450;2024-03-02T16:16:56;14.60;99.90
50556;DHT22;36508;52.512;13.450;2024-03-02T16:19:21;14.60;99.90
50556;DHT22;36508;52.512;13.450;2024-03-02T16:21:47;14.50;99.90
50556;DHT22;36508;52.512;13.450;2024-03-02T16:24:12;14.50;99.90
50556;DHT22;36508;52.512;13.450;2024-03-02T16:26:38;14.30;99.90
50556;DHT22;36508;52.512;13.450;2024-03-02T16:29:04;14.30;99.90
50556;DHT22;36508;52.512;13.450;2024-03-02T16:31:29;14.20;99.90
50556;DHT22;36508;52.512;13.450;2024-03-02T16:33:55;14.10;99.90
50556;DHT22;36508;52.512;13.450;2024-03-02T16:36:20;14.00;99.90
50556;DHT22;36508;52.512;13.450;2024-03-02T16:38:46;14.00;99.90
50556;DHT22;36508;52.512;13.450;2024-03-02T16:41:12;13.90;99.90
50556;DHT22;36508;52.512;13.450;2024-03-02T16:43:38;13.90;99.90
50556;DHT22;36508;52.512;13.450;2024-03-02T16:46:04;13.80;99.90
50556;DHT22;36508;52.512;13.450;2024-03-02T16:48:31;13.80;99.90
50556;DHT22;36508;52.512;13.450;2024-03-02T16:50:57;13.70;99.90
50556;DHT22;36508;52.512;13.450;2024-03-02T16:53:23;13.70;99.90
50556;DHT22;36508;52.512;13.450;2024-03-02T16:55:48;13.60;99.90
50556;DHT22;36508;52.512;13.450;2024-03-02T16:58:15;13.60;99.90
50556;DHT22;36508;52.512;13.450;2024-03-02T17:00:43;13.50;99.90
50556;DHT22;36508;52.512;13.450;2024-03-02T17:03:10;13.50;99.90
50556;DHT22;36508;52.512;13.450;2024-03-02T17:05:36;13.40;99.90
50556;DHT22;36508;52.512;13.450;2024-03-02T17:08:02;13.40;99.90
50556;DHT22;36508;52.512;13.450;2024-03-02T17:10:33;13.40;99.90
50556;DHT22;36508;52.512;13.450;2024-03-02T17:12:59;13.30;99.90
50556;DHT22;36508;52.512;13.450;2024-03-02T17:15:30;13.40;99.90
50556;DHT22;36508;52.512;13.450;2024-03-02T17:17:59;13.30;99.90
50556;DHT22;36508;52.512;13.450;2024-03-02T17:20:25;13.30;99.90
50556;DHT22;36508;52.512;13.450;2024-03-02T17:22:57;13.10;99.90
50556;DHT22;36508;52.512;13.450;2024-03-02T17:25:22;13.20;99.90
50556;DHT22;36508;52.512;13.450;2024-03-02T17:27:48;13.10;99.90
50556;DHT22;36508;52.512;13.450;2024-03-02T17:30:14;13.10;99.90
50556;DHT22;36508;52.512;13.450;2024-03-02T17:32:40;13.10;99.90
50556;DHT22;36508;52.512;13.450;2024-03-02T17:35:09;13.10;99.90
50556;DHT22;36508;52.512;13.450;2024-03-02T17:37:39;13.00;99.90
50556;DHT22;36508;52.512;13.450;2024-03-02T17:40:09;12.90;99.90
50556;DHT22;36508;52.512;13.450;2024-03-02T17:42:41;13.00;99.90
50556;DHT22;36508;52.512;13.450;2024-03-02T17:45:10;12.90;99.90
50556;DHT22;36508;52.512;13.450;2024-03-02T17:47:36;13.00;99.90
50556;DHT22;36508;52.512;13.450;2024-03-02T17:50:08;13.00;99.90
50556;DHT22;36508;52.512;13.450;2024-03-02T17:52:34;13.00;99.90
50556;DHT22;36508;52.512;13.450;2024-03-02T17:55:00;12.90;99.90
50556;DHT22;36508;52.512;13.450;2024-03-02T17:57:25;12.90;99.90
50556;DHT22;36508;52.512;13.450;2024-03-02T17:59:54;12.90;99.90
50556;DHT22;36508;52.512;13.450;2024-03-02T18:02:26;12.90;99.90
50556;DHT22;36508;52.512;13.450;2024-03-02T18:05:04;12.70;99.90
50556;DHT22;36508;52.512;13.450;2024-03-02T18:07:30;12.60;99.90
50556;DHT22;36508;52.512;13.450;2024-03-02T18:09:56;12.60;99.90
50556;DHT22;36508;52.512;13.450;2024-03-02T18:12:26;12.60;99.90
50556;DHT22;36508;52.512;13.450;2024-03-02T18:14:53;12.60;99.90
50556;DHT22;36508;52.512;13.450;2024-03-02T18:17:19;12.60;99.90
50556;DHT22;36508;52.512;13.450;2024-03-02T18:19:53;12.50;99.90
50556;DHT22;36508;52.512;13.450;2024-03-02T18:22:21;12.50;99.90
50556;DHT22;36508;52.512;13.450;2024-03-02T18:24:50;12.60;99.90
50556;DHT22;36508;52.512;13.450;2024-03-02T18:29:46;12.60;99.90
50556;DHT22;36508;52.512;13.450;2024-03-02T18:32:11;12.50;99.90
50556;DHT22;36508;52.512;13.450;2024-03-02T18:34:37;12.50;99.90
50556;DHT22;36508;52.512;13.450;2024-03-02T18:37:06;12.40;99.90
50556;DHT22;36508;52.512;13.450;2024-03-02T18:39:32;12.40;99.90
50556;DHT22;36508;52.512;13.450;2024-03-02T18:41:57;12.40;99.90
50556;DHT22;36508;52.512;13.450;2024-03-02T18:44:26;12.30;99.90
50556;DHT22;36508;52.512;13.450;2024-03-02T18:46:57;12.30;99.90
50556;DHT22;36508;52.512;13.450;2024-03-02T18:49:23;12.30;99.90
50556;DHT22;36508;52.512;13.450;2024-03-02T18:51:49;12.40;99.90
50556;DHT22;36508;52.512;13.450;2024-03-02T18:54:15;12.40;99.90
50556;DHT22;36508;52.512;13.450;2024-03-02T18:56:42;12.30;99.90
50556;DHT22;36508;52.512;13.450;2024-03-02T18:59:10;12.20;99.90
50556;DHT22;36508;52.512;13.450;2024-03-02T19:01:39;12.30;99.90
50556;DHT22;36508;52.512;13.450;2024-03-02T19:04:04;12.30;99.90
50556;DHT22;36508;52.512;13.450;2024-03-02T19:06:31;12.20;99.90
50556;DHT22;36508;52.512;13.450;2024-03-02T19:08:59;12.20;99.90
50556;DHT22;36508;52.512;13.450;2024-03-02T19:11:25;12.20;99.90
50556;DHT22;36508;52.512;13.450;2024-03-02T19:13:51;12.20;99.90
50556;DHT22;36508;52.512;13.450;2024-03-02T19:16:17;12.10;99.90
50556;DHT22;36508;52.512;13.450;2024-03-02T19:18:43;12.10;99.90
50556;DHT22;36508;52.512;13.450;2024-03-02T19:21:09;12.10;99.90
50556;DHT22;36508;52.512;13.450;2024-03-02T19:23:35;12.10;99.90
50556;DHT22;36508;52.512;13.450;2024-03-02T19:26:01;12.20;99.90
50556;DHT22;36508;52.512;13.450;2024-03-02T19:28:28;12.20;99.90
50556;DHT22;36508;52.512;13.450;2024-03-02T19:30:53;12.10;99.90
50556;DHT22;36508;52.512;13.450;2024-03-02T19:33:19;12.10;99.90
50556;DHT22;36508;52.512;13.450;2024-03-02T19:35:45;12.20;99.90
50556;DHT22;36508;52.512;13.450;2024-03-02T19:38:12;12.20;99.90
50556;DHT22;36508;52.512;13.450;2024-03-02T19:40:38;12.10;99.90
50556;DHT22;36508;52.512;13.450;2024-03-02T19:43:04;12.20;99.90
50556;DHT22;36508;52.512;13.450;2024-03-02T19:45:29;11.90;99.90
50556;DHT22;36508;52.512;13.450;2024-03-02T19:47:55;11.80;99.90
50556;DHT22;36508;52.512;13.450;2024-03-02T19:50:20;11.90;99.90
50556;DHT22;36508;52.512;13.450;2024-03-02T19:52:46;12.00;99.90
50556;DHT22;36508;52.512;13.450;2024-03-02T19:55:18;12.10;99.90
50556;DHT22;36508;52.512;13.450;2024-03-02T19:57:43;12.10;99.90
50556;DHT22;36508;52.512;13.450;2024-03-02T20:00:13;12.00;99.90
50556;DHT22;36508;52.512;13.450;2024-03-02T20:02:39;12.00;99.90
50556;DHT22;36508;52.512;13.450;2024-03-02T20:05:05;11.90;99.90
50556;DHT22;36508;52.512;13.450;2024-03-02T20:07:31;12.00;99.90
50556;DHT22;36508;52.512;13.450;2024-03-02T20:09:57;11.90;99.90
50556;DHT22;36508;52.512;13.450;2024-03-02T20:12:22;12.00;99.90